createdAt,value
2023-01-17T00:01:14.509Z,10.30
2023-01-17T00:04:03.462Z,10.30
2023-01-17T00:06:50.949Z,10.30
2023-01-17T00:09:41.215Z,10.30
2023-01-17T00:12:10.328Z,10.40
2023-01-17T00:14:40.058Z,10.50
2023-01-17T00:17:09.530Z,10.50
2023-01-17T00:19:56.966Z,10.40
2023-01-17T00:22:47.590Z,10.50
2023-01-17T00:25:37.106Z,10.50
2023-01-17T00:28:06.237Z,10.50
2023-01-17T00:30:35.039Z,10.50
2023-01-17T00:33:03.942Z,10.50
2023-01-17T00:35:33.493Z,10.60
2023-01-17T00:38:23.417Z,10.60
2023-01-17T00:40:52.637Z,10.60
2023-01-17T00:43:41.262Z,10.70
2023-01-17T00:46:28.664Z,10.70
2023-01-17T00:49:16.487Z,10.70
2023-01-17T00:52:04.044Z,10.80
2023-01-17T00:54:52.023Z,10.80
2023-01-17T00:57:39.543Z,10.80
2023-01-17T01:00:27.546Z,11.00
2023-01-17T01:03:15.380Z,11.00
2023-01-17T01:06:03.971Z,11.00
2023-01-17T01:08:51.874Z,11.50
2023-01-17T01:11:40.385Z,11.30
2023-01-17T01:14:29.586Z,11.40
2023-01-17T01:17:17.965Z,11.30
2023-01-17T01:20:05.424Z,11.30
2023-01-17T01:22:53.327Z,11.30
2023-01-17T01:25:41.358Z,11.50
2023-01-17T01:28:33.260Z,11.50
2023-01-17T01:31:21.928Z,11.50
2023-01-17T01:33:53.256Z,11.60
2023-01-17T01:36:23.195Z,11.80
2023-01-17T01:38:52.651Z,12.20
2023-01-17T01:41:21.950Z,12.50
2023-01-17T01:43:55.552Z,12.90
2023-01-17T01:46:40.088Z,13.20
2023-01-17T01:49:25.364Z,14.00
2023-01-17T01:52:02.337Z,13.60
2023-01-17T01:54:55.346Z,13.60
2023-01-17T01:57:27.911Z,13.60
2023-01-17T02:00:02.385Z,13.70
2023-01-17T02:02:41.112Z,13.70
2023-01-17T02:05:11.135Z,14.00
2023-01-17T02:07:44.940Z,14.10
2023-01-17T02:10:13.922Z,14.20
2023-01-17T02:12:43.061Z,14.10
2023-01-17T02:15:12.717Z,14.00
2023-01-17T02:18:04.130Z,14.00
2023-01-17T02:20:46.928Z,14.00
2023-01-17T02:23:39.006Z,14.10
2023-01-17T02:26:32.255Z,13.90
2023-01-17T02:29:29.845Z,13.90
2023-01-17T02:32:23.738Z,13.90
2023-01-17T02:35:19.121Z,14.40
2023-01-17T02:37:52.733Z,14.10
2023-01-17T02:40:28.640Z,14.10
2023-01-17T02:43:01.400Z,14.00
2023-01-17T02:45:32.568Z,14.00
2023-01-17T02:48:02.076Z,14.10
2023-01-17T02:50:57.226Z,14.00
2023-01-17T02:53:33.713Z,13.90
2023-01-17T02:56:12.177Z,13.90
2023-01-17T02:59:12.842Z,14.00
2023-01-17T03:01:43.369Z,14.10
2023-01-17T03:04:21.946Z,14.10
2023-01-17T03:06:57.865Z,14.20
2023-01-17T03:09:27.451Z,14.20
2023-01-17T03:11:57.127Z,14.30
2023-01-17T03:14:26.617Z,14.30
2023-01-17T03:16:56.394Z,14.40
2023-01-17T03:19:26.719Z,14.50
2023-01-17T03:21:56.475Z,14.50
2023-01-17T03:24:25.481Z,14.50
2023-01-17T03:26:55.331Z,14.60
2023-01-17T03:29:24.588Z,14.70
2023-01-17T03:31:53.605Z,14.70
2023-01-17T03:34:23.655Z,14.80
2023-01-17T03:36:53.425Z,14.90
2023-01-17T03:39:23.451Z,15.00
2023-01-17T03:41:52.873Z,15.00
2023-01-17T03:44:22.192Z,14.90
2023-01-17T03:46:51.813Z,14.90
2023-01-17T03:49:21.448Z,14.80
2023-01-17T03:51:50.756Z,14.70
2023-01-17T03:54:20.036Z,14.60
2023-01-17T03:56:50.032Z,14.60
2023-01-17T03:59:19.158Z,14.60
2023-01-17T04:01:48.257Z,14.40
2023-01-17T04:04:17.721Z,14.40
2023-01-17T04:06:48.738Z,14.50
2023-01-17T04:09:19.538Z,14.50
2023-01-17T04:13:04.328Z,14.60
2023-01-17T04:15:34.497Z,14.50
2023-01-17T04:18:05.579Z,14.80
2023-01-17T04:20:39.222Z,14.60
2023-01-17T04:23:09.206Z,14.80
2023-01-17T04:25:38.924Z,14.90
2023-01-17T04:28:08.890Z,15.10
2023-01-17T04:30:38.459Z,15.00
2023-01-17T04:33:10.646Z,15.30
2023-01-17T04:35:40.327Z,15.30
2023-01-17T04:38:09.753Z,15.30
2023-01-17T04:40:54.244Z,15.60
2023-01-17T04:43:23.955Z,15.40
2023-01-17T04:45:59.294Z,15.70
2023-01-17T04:48:29.394Z,15.60
2023-01-17T04:51:02.407Z,15.00
2023-01-17T04:53:31.634Z,14.90
2023-01-17T04:56:01.288Z,15.00
2023-01-17T04:58:30.996Z,14.90
2023-01-17T05:01:05.046Z,14.90
2023-01-17T05:03:34.449Z,14.90
2023-01-17T05:06:04.025Z,14.90
2023-01-17T05:08:33.454Z,14.90
2023-01-17T05:11:02.545Z,14.80
2023-01-17T05:13:31.927Z,14.70
2023-01-17T05:16:01.101Z,14.70
2023-01-17T05:18:30.020Z,14.60
2023-01-17T05:21:20.381Z,14.60
2023-01-17T05:23:50.171Z,14.50
2023-01-17T05:26:19.685Z,14.40
2023-01-17T05:28:49.133Z,14.40
2023-01-17T05:31:19.287Z,14.40
2023-01-17T05:33:48.635Z,14.10
2023-01-17T05:36:19.229Z,14.10
2023-01-17T05:38:50.850Z,14.10
2023-01-17T05:41:20.881Z,14.10
2023-01-17T05:43:51.401Z,14.20
2023-01-17T05:46:21.436Z,14.40
2023-01-17T05:48:50.757Z,14.50
2023-01-17T05:51:19.568Z,14.80
2023-01-17T05:53:49.392Z,14.90
2023-01-17T05:56:19.842Z,15.00
2023-01-17T05:58:50.960Z,15.30
2023-01-17T06:01:20.167Z,15.80
2023-01-17T06:03:49.806Z,16.10
2023-01-17T06:06:47.137Z,16.30
2023-01-17T06:09:16.784Z,16.40
2023-01-17T06:11:46.514Z,16.80
2023-01-17T06:14:15.917Z,16.90
2023-01-17T06:16:46.088Z,16.50
2023-01-17T06:19:16.497Z,16.30
2023-01-17T06:21:45.799Z,16.30
2023-01-17T06:24:16.412Z,16.60
2023-01-17T06:26:45.518Z,16.20
2023-01-17T06:29:15.569Z,16.30
2023-01-17T06:31:45.044Z,16.30
2023-01-17T06:34:14.297Z,16.20
2023-01-17T06:36:43.348Z,16.20
2023-01-17T06:39:14.935Z,16.20
2023-01-17T06:41:44.880Z,16.10
2023-01-17T06:44:13.913Z,16.40
2023-01-17T06:46:43.036Z,16.20
2023-01-17T06:49:11.879Z,16.10
2023-01-17T06:51:43.641Z,16.10
2023-01-17T06:54:34.535Z,16.10
2023-01-17T06:57:04.559Z,16.10
2023-01-17T06:59:34.007Z,16.10
2023-01-17T07:02:03.052Z,16.00
2023-01-17T07:04:32.109Z,16.00
2023-01-17T07:07:02.625Z,15.90
2023-01-17T07:09:31.727Z,15.90
2023-01-17T07:12:03.085Z,15.90
2023-01-17T07:14:32.524Z,15.90
2023-01-17T07:17:03.990Z,15.90
2023-01-17T07:19:33.986Z,15.90
2023-01-17T07:22:04.388Z,15.90
2023-01-17T07:24:37.481Z,15.90
2023-01-17T07:27:10.779Z,16.00
2023-01-17T07:29:40.784Z,16.10
2023-01-17T07:32:12.010Z,16.10
2023-01-17T07:34:41.808Z,16.10
2023-01-17T07:37:13.078Z,16.00
2023-01-17T07:39:44.245Z,16.10
2023-01-17T07:42:13.827Z,16.10
2023-01-17T07:44:45.075Z,16.10
2023-01-17T07:47:14.975Z,16.10
2023-01-17T07:49:45.172Z,16.00
2023-01-17T07:52:15.089Z,16.10
2023-01-17T07:54:46.495Z,16.10
2023-01-17T07:57:15.373Z,16.10
2023-01-17T07:59:44.717Z,16.20
2023-01-17T08:02:21.745Z,16.20
2023-01-17T08:04:51.267Z,16.10
2023-01-17T08:07:20.533Z,16.20
2023-01-17T08:09:50.955Z,16.10
2023-01-17T08:12:20.733Z,16.20
2023-01-17T08:14:50.438Z,16.10
2023-01-17T08:17:21.128Z,16.00
2023-01-17T08:19:52.404Z,16.10
2023-01-17T08:22:22.436Z,16.00
2023-01-17T08:24:52.427Z,16.00
2023-01-17T08:27:21.424Z,16.00
2023-01-17T08:29:50.857Z,16.00
2023-01-17T08:32:22.413Z,16.00
2023-01-17T08:34:52.166Z,16.00
2023-01-17T08:37:21.044Z,16.00
2023-01-17T08:39:50.800Z,16.00
2023-01-17T08:42:20.051Z,16.00
2023-01-17T08:44:50.998Z,15.90
2023-01-17T08:47:20.102Z,16.00
2023-01-17T08:49:51.164Z,15.90
2023-01-17T08:52:20.952Z,15.80
2023-01-17T08:54:51.261Z,15.80
2023-01-17T08:57:24.478Z,15.90
2023-01-17T08:59:54.410Z,15.90
2023-01-17T09:02:24.991Z,15.90
2023-01-17T09:04:55.033Z,15.90
2023-01-17T09:07:25.506Z,15.90
2023-01-17T09:09:54.656Z,15.90
2023-01-17T09:12:24.482Z,16.10
2023-01-17T09:14:53.913Z,16.30
2023-01-17T09:17:23.605Z,16.30
2023-01-17T09:19:53.483Z,16.40
2023-01-17T09:22:33.033Z,16.30
2023-01-17T09:25:02.668Z,16.30
2023-01-17T09:27:31.972Z,16.30
2023-01-17T09:30:01.653Z,16.20
2023-01-17T09:32:31.137Z,16.20
2023-01-17T09:35:02.021Z,16.10
2023-01-17T09:37:31.637Z,16.20
2023-01-17T09:40:01.087Z,16.20
2023-01-17T09:42:35.758Z,16.10
2023-01-17T09:45:06.374Z,16.10
2023-01-17T09:47:47.321Z,16.10
2023-01-17T09:50:34.520Z,16.00
2023-01-17T09:53:05.329Z,16.00
2023-01-17T09:55:58.310Z,15.90
2023-01-17T09:58:34.349Z,15.90
2023-01-17T10:01:18.513Z,15.90
2023-01-17T10:03:57.326Z,15.70
2023-01-17T10:07:03.419Z,15.60
2023-01-17T10:09:41.579Z,15.50
2023-01-17T10:12:47.499Z,15.40
2023-01-17T10:15:33.718Z,15.30
2023-01-17T10:18:43.671Z,15.20
2023-01-17T10:21:18.195Z,15.10
2023-01-17T10:23:47.723Z,15.00
2023-01-17T10:26:23.403Z,14.90
2023-01-17T10:28:54.521Z,14.80
2023-01-17T10:31:35.109Z,14.70
2023-01-17T10:34:39.142Z,14.60
2023-01-17T10:37:16.238Z,14.60
2023-01-17T10:39:47.844Z,14.60
2023-01-17T10:42:51.841Z,14.50
2023-01-17T10:45:27.389Z,14.40
2023-01-17T10:48:17.524Z,14.40
2023-01-17T10:51:25.355Z,14.40
2023-01-17T10:54:07.584Z,14.30
2023-01-17T10:56:37.157Z,14.20
2023-01-17T10:59:31.198Z,14.20
2023-01-17T11:02:00.827Z,14.10
2023-01-17T11:04:39.998Z,14.10
2023-01-17T11:07:19.063Z,14.10
2023-01-17T11:09:54.289Z,14.00
2023-01-17T11:12:33.938Z,14.00
2023-01-17T11:15:12.320Z,14.00
2023-01-17T11:18:17.323Z,14.00
2023-01-17T11:20:46.753Z,13.90
2023-01-17T11:23:23.750Z,13.90
2023-01-17T11:25:58.630Z,14.20
2023-01-17T11:28:36.325Z,14.50
2023-01-17T11:31:17.670Z,14.40
2023-01-17T11:33:56.340Z,14.40
2023-01-17T11:36:31.114Z,14.30
2023-01-17T11:39:08.724Z,14.70
2023-01-17T11:41:39.988Z,14.70
2023-01-17T11:44:30.389Z,14.90
2023-01-17T11:47:15.525Z,15.20
2023-01-17T11:49:46.642Z,16.20
2023-01-17T11:52:25.694Z,18.60
2023-01-17T11:54:55.888Z,19.10
2023-01-17T11:57:30.889Z,19.60
2023-01-17T12:00:17.222Z,19.10
2023-01-17T12:03:16.196Z,19.20
2023-01-17T12:06:14.526Z,18.70
2023-01-17T12:08:58.739Z,18.70
2023-01-17T12:12:06.337Z,18.50
2023-01-17T12:14:46.728Z,18.30
2023-01-17T12:17:48.814Z,18.20
2023-01-17T12:20:47.167Z,18.00
2023-01-17T12:23:59.007Z,17.90
2023-01-17T12:26:31.839Z,17.80
2023-01-17T12:29:04.344Z,17.50
2023-01-17T12:31:58.888Z,17.50
2023-01-17T12:34:28.573Z,17.50
2023-01-17T12:37:16.544Z,17.20
2023-01-17T12:39:59.353Z,17.10
2023-01-17T12:42:37.429Z,17.10
2023-01-17T12:45:15.339Z,17.00
2023-01-17T12:47:49.847Z,16.90
2023-01-17T12:50:36.442Z,16.70
2023-01-17T12:53:19.227Z,16.80
2023-01-17T12:56:12.547Z,16.70
2023-01-17T12:58:46.186Z,16.70
2023-01-17T13:01:41.466Z,16.50
2023-01-17T13:04:31.746Z,16.50
2023-01-17T13:07:38.621Z,16.40
2023-01-17T13:10:17.521Z,16.30
2023-01-17T13:12:53.615Z,16.30
2023-01-17T13:15:34.795Z,16.30
2023-01-17T13:18:23.737Z,16.20
2023-01-17T13:21:28.061Z,16.10
2023-01-17T13:24:00.615Z,16.00
2023-01-17T13:26:50.255Z,15.90
2023-01-17T13:29:35.884Z,16.00
2023-01-17T13:32:31.752Z,16.00
2023-01-17T13:35:05.372Z,15.90
2023-01-17T13:37:58.832Z,15.80
2023-01-17T13:40:48.029Z,15.70
2023-01-17T13:43:37.123Z,15.70
2023-01-17T13:46:12.637Z,15.70
2023-01-17T13:48:48.867Z,15.60
2023-01-17T13:51:20.901Z,15.60
2023-01-17T13:53:55.739Z,15.70
2023-01-17T13:56:34.355Z,15.50
2023-01-17T13:59:16.342Z,15.50
2023-01-17T14:01:52.797Z,15.50
2023-01-17T14:04:27.833Z,15.50
2023-01-17T14:06:59.041Z,15.40
2023-01-17T14:09:38.705Z,15.40
2023-01-17T14:12:17.571Z,15.30
2023-01-17T14:14:57.115Z,15.30
2023-01-17T14:17:52.789Z,15.30
2023-01-17T14:20:31.013Z,15.20
2023-01-17T14:23:14.015Z,15.20
2023-01-17T14:25:53.557Z,15.20
2023-01-17T14:28:28.939Z,15.20
2023-01-17T14:30:59.142Z,15.10
2023-01-17T14:33:36.888Z,15.10
2023-01-17T14:36:11.131Z,15.10
2023-01-17T14:38:46.036Z,15.00
2023-01-17T14:41:27.690Z,15.00
2023-01-17T14:44:01.656Z,15.00
2023-01-17T14:46:38.349Z,14.90
2023-01-17T14:49:21.481Z,14.90
2023-01-17T14:52:09.449Z,15.00
2023-01-17T14:54:41.063Z,14.90
2023-01-17T14:57:40.875Z,14.80
2023-01-17T15:00:29.929Z,14.80
2023-01-17T15:03:03.400Z,14.80
2023-01-17T15:05:37.323Z,14.70
2023-01-17T15:08:17.271Z,14.70
2023-01-17T15:11:04.195Z,14.70
2023-01-17T15:13:44.610Z,14.60
2023-01-17T15:16:34.973Z,14.70
2023-01-17T15:19:16.221Z,14.60
2023-01-17T15:21:52.535Z,14.60
2023-01-17T15:24:29.252Z,14.60
2023-01-17T15:26:58.434Z,14.50
2023-01-17T15:29:45.790Z,14.50
2023-01-17T15:32:25.561Z,14.50
2023-01-17T15:35:04.947Z,14.50
2023-01-17T15:37:45.119Z,14.40
2023-01-17T15:40:22.487Z,14.40
2023-01-17T15:43:00.462Z,14.40
2023-01-17T15:45:33.341Z,14.40
2023-01-17T15:48:38.018Z,14.40
2023-01-17T15:51:13.196Z,14.40
2023-01-17T15:53:49.429Z,14.40
2023-01-17T15:56:41.283Z,14.30
2023-01-17T15:59:49.554Z,14.20
2023-01-17T16:02:49.328Z,14.30
2023-01-17T16:05:33.621Z,14.30
2023-01-17T16:08:07.283Z,14.20
2023-01-17T16:10:50.361Z,14.20
2023-01-17T16:13:22.886Z,14.20
2023-01-17T16:15:54.645Z,14.20
2023-01-17T16:18:29.137Z,14.10
2023-01-17T16:21:00.446Z,14.10
2023-01-17T16:23:41.059Z,14.10
2023-01-17T16:26:18.223Z,14.10
2023-01-17T16:28:52.395Z,14.10
2023-01-17T16:31:25.212Z,14.00
2023-01-17T16:33:59.111Z,14.00
2023-01-17T16:36:33.299Z,14.00
2023-01-17T16:39:09.419Z,14.00
2023-01-17T16:41:45.072Z,14.00
2023-01-17T16:44:20.746Z,14.00
2023-01-17T16:46:53.050Z,14.00
2023-01-17T16:49:28.063Z,13.90
2023-01-17T16:51:58.760Z,14.00
2023-01-17T16:54:39.906Z,13.90
2023-01-17T16:57:13.629Z,13.90
2023-01-17T16:59:50.675Z,13.90
2023-01-17T17:02:25.306Z,13.90
2023-01-17T17:05:01.308Z,13.80
2023-01-17T17:07:36.715Z,13.90
2023-01-17T17:10:12.611Z,13.80
2023-01-17T17:15:31.862Z,13.80
2023-01-17T17:18:07.460Z,13.70
2023-01-17T17:20:38.851Z,13.70
2023-01-17T17:23:11.081Z,13.70
2023-01-17T17:25:44.876Z,13.70
2023-01-17T17:28:20.873Z,13.70
2023-01-17T17:30:56.181Z,13.70
2023-01-17T17:33:29.731Z,13.70
2023-01-17T17:36:06.731Z,13.60
2023-01-17T17:38:37.352Z,13.70
2023-01-17T17:41:11.129Z,13.60
2023-01-17T17:43:45.330Z,13.60
2023-01-17T17:46:21.022Z,13.60
2023-01-17T17:48:56.842Z,13.60
2023-01-17T17:51:29.444Z,13.50
2023-01-17T17:54:09.716Z,13.50
2023-01-17T17:56:45.282Z,13.50
2023-01-17T17:59:17.960Z,13.50
2023-01-17T18:01:52.979Z,13.50
2023-01-17T18:04:28.366Z,13.50
2023-01-17T18:06:58.434Z,13.40
2023-01-17T18:09:33.837Z,13.50
2023-01-17T18:12:07.172Z,13.40
2023-01-17T18:14:43.067Z,13.40
2023-01-17T18:17:18.940Z,13.50
2023-01-17T18:19:49.423Z,13.40
2023-01-17T18:22:21.748Z,13.40
2023-01-17T18:24:57.080Z,13.40
2023-01-17T18:27:29.088Z,13.30
2023-01-17T18:29:58.772Z,13.40
2023-01-17T18:32:29.129Z,13.30
2023-01-17T18:34:58.582Z,13.40
2023-01-17T18:37:29.257Z,13.30
2023-01-17T18:39:58.788Z,13.40
2023-01-17T18:42:29.175Z,13.30
2023-01-17T18:44:58.498Z,13.30
2023-01-17T18:47:29.819Z,13.20
2023-01-17T18:49:58.928Z,13.30
2023-01-17T18:52:29.032Z,13.20
2023-01-17T18:54:59.034Z,13.20
2023-01-17T18:57:29.387Z,13.20
2023-01-17T18:59:58.256Z,13.20
2023-01-17T19:02:32.739Z,13.20
2023-01-17T19:05:06.122Z,13.20
2023-01-17T19:07:39.202Z,13.20
2023-01-17T19:10:12.862Z,13.20
2023-01-17T19:12:54.951Z,13.20
2023-01-17T19:15:25.731Z,13.20
2023-01-17T19:17:57.470Z,13.10
2023-01-17T19:20:32.006Z,13.10
2023-01-17T19:23:02.066Z,13.10
2023-01-17T19:25:37.873Z,13.10
2023-01-17T19:28:11.028Z,13.10
2023-01-17T19:30:41.307Z,13.10
2023-01-17T19:33:16.765Z,13.00
2023-01-17T19:35:56.989Z,13.00
2023-01-17T19:38:32.685Z,13.00
2023-01-17T19:41:18.612Z,13.00
2023-01-17T19:43:49.074Z,13.10
2023-01-17T19:46:20.671Z,13.00
2023-01-17T19:48:56.203Z,13.00
2023-01-17T19:51:37.326Z,13.00
2023-01-17T19:54:16.553Z,13.00
2023-01-17T19:56:48.895Z,13.00
2023-01-17T19:59:20.605Z,13.00
2023-01-17T20:01:53.694Z,13.00
2023-01-17T20:04:27.852Z,12.90
2023-01-17T20:06:57.703Z,13.00
2023-01-17T20:09:33.592Z,12.90
2023-01-17T20:12:05.966Z,13.00
2023-01-17T20:14:40.927Z,13.00
2023-01-17T20:17:13.394Z,12.90
2023-01-17T20:19:48.865Z,12.90
2023-01-17T20:22:22.501Z,12.90
2023-01-17T20:24:51.974Z,12.90
2023-01-17T20:27:25.506Z,12.90
2023-01-17T20:29:57.007Z,12.90
2023-01-17T20:32:26.640Z,12.90
2023-01-17T20:34:57.551Z,12.90
2023-01-17T20:37:33.677Z,12.90
2023-01-17T20:40:02.849Z,12.90
2023-01-17T20:42:33.218Z,12.90
2023-01-17T20:45:08.339Z,12.90
2023-01-17T20:47:40.926Z,12.90
2023-01-17T20:50:17.331Z,12.80
2023-01-17T20:52:49.372Z,12.90
2023-01-17T20:55:25.028Z,12.80
2023-01-17T20:57:54.762Z,12.80
2023-01-17T21:00:25.287Z,12.80
2023-01-17T21:02:57.536Z,12.80
2023-01-17T21:05:27.154Z,12.70
2023-01-17T21:07:57.770Z,12.80
2023-01-17T21:10:29.140Z,12.80
2023-01-17T21:12:58.378Z,12.80
2023-01-17T21:15:32.755Z,12.80
2023-01-17T21:18:12.234Z,12.70
2023-01-17T21:20:47.979Z,12.70
2023-01-17T21:23:24.106Z,12.70
2023-01-17T21:25:57.632Z,12.70
2023-01-17T21:28:31.400Z,12.70
2023-01-17T21:31:02.237Z,12.70
2023-01-17T21:33:41.353Z,12.70
2023-01-17T21:36:16.456Z,12.70
2023-01-17T21:38:53.843Z,12.60
2023-01-17T21:41:24.861Z,12.70
2023-01-17T21:44:05.092Z,12.60
2023-01-17T21:46:38.198Z,12.70
2023-01-17T21:49:11.202Z,12.60
2023-01-17T21:51:58.058Z,12.60
2023-01-17T21:54:51.144Z,12.70
2023-01-17T21:57:42.362Z,12.60
2023-01-17T22:00:19.855Z,12.60
2023-01-17T22:02:54.364Z,12.60
2023-01-17T22:05:29.241Z,12.60
2023-01-17T22:08:15.330Z,12.60
2023-01-17T22:10:50.510Z,12.60
2023-01-17T22:13:21.315Z,12.60
2023-01-17T22:16:05.611Z,12.50
2023-01-17T22:18:37.927Z,12.50
2023-01-17T22:21:23.873Z,12.50
2023-01-17T22:24:05.159Z,12.50
2023-01-17T22:26:41.903Z,12.50
2023-01-17T22:29:17.176Z,12.60
2023-01-17T22:31:53.714Z,12.50
2023-01-17T22:34:28.740Z,12.50
2023-01-17T22:37:02.580Z,12.60
2023-01-17T22:39:34.996Z,12.50
2023-01-17T22:42:04.898Z,12.60
2023-01-17T22:44:38.609Z,12.50
2023-01-17T22:47:09.091Z,12.50
2023-01-17T22:49:38.462Z,12.50
2023-01-17T22:52:10.562Z,12.50
2023-01-17T22:54:42.654Z,12.50
2023-01-17T22:57:15.505Z,12.40
2023-01-17T22:59:45.748Z,12.50
2023-01-17T23:02:24.014Z,12.40
2023-01-17T23:04:57.648Z,12.50
2023-01-17T23:07:32.991Z,12.40
2023-01-17T23:10:06.345Z,12.40
2023-01-17T23:12:38.589Z,12.40
2023-01-17T23:15:28.482Z,12.40
2023-01-17T23:18:16.406Z,12.40
2023-01-17T23:20:50.559Z,12.40
2023-01-17T23:23:22.930Z,12.40
2023-01-17T23:25:51.986Z,12.40
2023-01-17T23:28:31.490Z,12.40
2023-01-17T23:31:06.044Z,12.40
2023-01-17T23:33:39.105Z,12.40
2023-01-17T23:36:13.537Z,12.40
2023-01-17T23:38:45.902Z,12.40
2023-01-17T23:41:33.898Z,12.40
2023-01-17T23:44:05.983Z,12.50
2023-01-17T23:46:36.067Z,12.40
2023-01-17T23:49:05.459Z,12.60
2023-01-17T23:51:34.586Z,12.60
2023-01-17T23:54:05.924Z,12.60
2023-01-17T23:56:40.871Z,12.60
2023-01-17T23:59:16.873Z,12.60
